To NAV CANADA Home Page Login to a new session Search on AWWS site Feedback and Comments Disclaimer Vers la page française équivalente Tips FAQ What's new on the site To the Forecasts and Observations / NOTAM section To "File a Flight Plan" website Publications and other links Update of the User's profile FIC Telephone Numbers My Weather Data Folder Route Weather Data Regional Weather Data Local Weather Data To the Forecasts and Observations / NOTAM section
Request Generated 04/02/2015 at 09:39:49 UTC . Weather information available at that time is displayed.

METAR/TAF

STEPHENVILLE/NL    

METAR CYJT 020900Z 28016KT 3SM -SHSN BLSN BKN012 OVC020 M06/M08 A2960
RMK SC5SC3 /S01/ SLP023=
SPECI CYJT 020844Z 28017G25KT 2SM R27/5500VP6000FT/D -SHSN BLSN
OVC012 M06/M08 A2959 RMK BLSN5SC3 SLP021=
SPECI CYJT 020841Z 28020KT 1/4SM R27/6000FT/U -SHSN BLSN VV002
M06/M08 A2959 RMK BLSN8 SLP021=
SPECI CYJT 020832Z 27015G24KT 2SM R27/5000VP6000FT/D -SHSN OVC012
M06/M08 A2959 RMK SC8 SLP020=
METAR CYJT 020800Z 28015KT 15SM -SHSN BKN022 M06/M09 A2958 RMK SC6
SLP017=
SPECI CYJT 020733Z 28011G20KT 3SM -SHSN SCT010 OVC022 M06/M08 A2957
RMK SF3SC5 SLP015=
METAR CYJT 020700Z 27013KT 15SM BKN030 M05/M09 A2957 RMK SC7 SLP013=

TAF CYJT 020541Z 0206/0306 27012G22KT P6SM BKN030 TEMPO 0206/0208 2SM
-SHSN OVC020
FM020800 27015G25KT P6SM BKN030 TEMPO 0208/0214 2SM -SHSN BLSN
OVC020 PROB30 0208/0214 1SM -SHSN BLSN VV008
FM021400 27020G35KT 6SM -SHSN BKN025 TEMPO 0214/0222 1SM -SHSN
BLSN VV008
FM022200 27015G25KT 2SM -SHSN BLSN BKN015 BKN025
FM030100 27012G22KT 4SM -SHSN BLSN BKN015 BKN025
BECMG 0302/0304 27010KT
RMK NXT FCST BY 021200Z=
Your time UTC time
Weather data provided by Environment Canada and NAV CANADA